sensor_id;sensor_type;location;lat;lon;timestamp;temperature;humidity
19435;DHT22;9853;50.848;4.108;2022-11-20T00:00:40;5.10;99.90
19435;DHT22;9853;50.848;4.108;2022-11-20T00:02:41;5.20;99.90
19435;DHT22;9853;50.848;4.108;2022-11-20T00:04:42;5.50;99.90
19435;DHT22;9853;50.848;4.108;2022-11-20T00:06:43;5.90;99.90
19435;DHT22;9853;50.848;4.108;2022-11-20T00:08:44;6.10;99.90
19435;DHT22;9853;50.848;4.108;2022-11-20T00:10:44;6.40;99.90
19435;DHT22;9853;50.848;4.108;2022-11-20T00:12:45;6.90;99.90
19435;DHT22;9853;50.848;4.108;2022-11-20T00:14:46;7.10;99.90
19435;DHT22;9853;50.848;4.108;2022-11-20T00:16:46;7.10;99.90
19435;DHT22;9853;50.848;4.108;2022-11-20T00:18:47;7.10;99.90
19435;DHT22;9853;50.848;4.108;2022-11-20T00:20:48;7.00;99.90
19435;DHT22;9853;50.848;4.108;2022-11-20T00:22:50;6.90;99.90
19435;DHT22;9853;50.848;4.108;2022-11-20T00:24:50;6.70;99.90
19435;DHT22;9853;50.848;4.108;2022-11-20T00:26:51;6.70;99.90
19435;DHT22;9853;50.848;4.108;2022-11-20T00:28:54;6.50;99.90
19435;DHT22;9853;50.848;4.108;2022-11-20T00:31:06;6.40;99.90
19435;DHT22;9853;50.848;4.108;2022-11-20T00:33:07;6.40;99.90
19435;DHT22;9853;50.848;4.108;2022-11-20T00:35:08;6.30;99.90
19435;DHT22;9853;50.848;4.108;2022-11-20T00:37:08;6.20;99.90
19435;DHT22;9853;50.848;4.108;2022-11-20T00:39:09;6.20;99.90
19435;DHT22;9853;50.848;4.108;2022-11-20T00:41:12;6.10;99.90
19435;DHT22;9853;50.848;4.108;2022-11-20T00:43:13;6.10;99.90
19435;DHT22;9853;50.848;4.108;2022-11-20T00:45:14;6.10;99.90
19435;DHT22;9853;50.848;4.108;2022-11-20T00:47:14;5.90;99.90
19435;DHT22;9853;50.848;4.108;2022-11-20T00:49:15;6.00;99.90
19435;DHT22;9853;50.848;4.108;2022-11-20T00:51:18;6.00;99.90
19435;DHT22;9853;50.848;4.108;2022-11-20T00:53:19;6.30;99.90
19435;DHT22;9853;50.848;4.108;2022-11-20T00:55:20;6.30;99.90
19435;DHT22;9853;50.848;4.108;2022-11-20T00:57:21;6.20;99.90
19435;DHT22;9853;50.848;4.108;2022-11-20T00:59:21;5.90;99.90
19435;DHT22;9853;50.848;4.108;2022-11-20T01:01:24;5.70;99.90
19435;DHT22;9853;50.848;4.108;2022-11-20T01:03:25;5.40;99.90
19435;DHT22;9853;50.848;4.108;2022-11-20T01:05:25;5.40;99.90
19435;DHT22;9853;50.848;4.108;2022-11-20T01:07:26;5.40;99.90
19435;DHT22;9853;50.848;4.108;2022-11-20T01:09:27;5.30;99.90
19435;DHT22;9853;50.848;4.108;2022-11-20T01:11:34;5.20;99.90
19435;DHT22;9853;50.848;4.108;2022-11-20T01:13:35;5.20;99.90
19435;DHT22;9853;50.848;4.108;2022-11-20T01:15:39;5.20;99.90
19435;DHT22;9853;50.848;4.108;2022-11-20T01:17:39;5.20;99.90
19435;DHT22;9853;50.848;4.108;2022-11-20T01:19:40;5.20;99.90
19435;DHT22;9853;50.848;4.108;2022-11-20T01:21:42;5.30;99.90
19435;DHT22;9853;50.848;4.108;2022-11-20T01:23:44;5.60;99.90
19435;DHT22;9853;50.848;4.108;2022-11-20T01:25:45;5.50;99.90
19435;DHT22;9853;50.848;4.108;2022-11-20T01:27:46;5.50;99.90
19435;DHT22;9853;50.848;4.108;2022-11-20T01:29:46;5.50;99.90
19435;DHT22;9853;50.848;4.108;2022-11-20T01:31:48;5.40;99.90
19435;DHT22;9853;50.848;4.108;2022-11-20T01:33:52;5.50;99.90
19435;DHT22;9853;50.848;4.108;2022-11-20T01:35:53;5.80;99.90
19435;DHT22;9853;50.848;4.108;2022-11-20T01:37:54;5.80;99.90
19435;DHT22;9853;50.848;4.108;2022-11-20T01:39:54;5.70;99.90
19435;DHT22;9853;50.848;4.108;2022-11-20T01:41:56;5.70;99.90
19435;DHT22;9853;50.848;4.108;2022-11-20T01:44:18;5.90;99.90
19435;DHT22;9853;50.848;4.108;2022-11-20T01:46:19;5.80;99.90
19435;DHT22;9853;50.848;4.108;2022-11-20T01:48:23;5.80;99.90
19435;DHT22;9853;50.848;4.108;2022-11-20T01:50:26;5.80;99.90
19435;DHT22;9853;50.848;4.108;2022-11-20T01:52:42;5.80;99.90
19435;DHT22;9853;50.848;4.108;2022-11-20T01:54:49;5.90;99.90
19435;DHT22;9853;50.848;4.108;2022-11-20T01:56:56;5.90;99.90
19435;DHT22;9853;50.848;4.108;2022-11-20T01:58:59;6.00;99.90
19435;DHT22;9853;50.848;4.108;2022-11-20T02:01:02;6.10;99.90
19435;DHT22;9853;50.848;4.108;2022-11-20T02:03:08;6.00;99.90
19435;DHT22;9853;50.848;4.108;2022-11-20T02:05:31;6.10;99.90
19435;DHT22;9853;50.848;4.108;2022-11-20T02:07:33;6.10;99.90
19435;DHT22;9853;50.848;4.108;2022-11-20T02:09:33;6.10;99.90
19435;DHT22;9853;50.848;4.108;2022-11-20T02:11:34;6.00;99.90
19435;DHT22;9853;50.848;4.108;2022-11-20T02:13:35;6.10;99.90
19435;DHT22;9853;50.848;4.108;2022-11-20T02:15:45;6.10;99.90
19435;DHT22;9853;50.848;4.108;2022-11-20T02:17:46;6.20;99.90
19435;DHT22;9853;50.848;4.108;2022-11-20T02:19:47;6.10;99.90
19435;DHT22;9853;50.848;4.108;2022-11-20T02:24:03;5.70;99.90
19435;DHT22;9853;50.848;4.108;2022-11-20T02:26:07;5.70;99.90
19435;DHT22;9853;50.848;4.108;2022-11-20T02:28:09;5.40;99.90
19435;DHT22;9853;50.848;4.108;2022-11-20T02:30:10;5.30;99.90
19435;DHT22;9853;50.848;4.108;2022-11-20T02:32:44;5.30;99.90
19435;DHT22;9853;50.848;4.108;2022-11-20T02:34:44;5.30;99.90
19435;DHT22;9853;50.848;4.108;2022-11-20T02:36:46;5.50;99.90
19435;DHT22;9853;50.848;4.108;2022-11-20T02:38:49;5.60;99.90
19435;DHT22;9853;50.848;4.108;2022-11-20T02:40:50;5.60;99.90
19435;DHT22;9853;50.848;4.108;2022-11-20T02:42:54;5.60;99.90
19435;DHT22;9853;50.848;4.108;2022-11-20T02:44:55;5.70;99.90
19435;DHT22;9853;50.848;4.108;2022-11-20T02:46:59;5.80;99.90
19435;DHT22;9853;50.848;4.108;2022-11-20T02:49:01;5.90;99.90
19435;DHT22;9853;50.848;4.108;2022-11-20T02:51:03;6.00;99.90
19435;DHT22;9853;50.848;4.108;2022-11-20T02:53:03;6.00;99.90
19435;DHT22;9853;50.848;4.108;2022-11-20T02:55:04;6.00;99.90
19435;DHT22;9853;50.848;4.108;2022-11-20T02:57:05;6.10;99.90
19435;DHT22;9853;50.848;4.108;2022-11-20T02:59:06;6.10;99.90
19435;DHT22;9853;50.848;4.108;2022-11-20T03:01:07;6.10;99.90
19435;DHT22;9853;50.848;4.108;2022-11-20T03:03:07;6.20;99.90
19435;DHT22;9853;50.848;4.108;2022-11-20T03:05:08;6.20;99.90
19435;DHT22;9853;50.848;4.108;2022-11-20T03:07:09;6.20;99.90
19435;DHT22;9853;50.848;4.108;2022-11-20T03:09:10;6.20;99.90
19435;DHT22;9853;50.848;4.108;2022-11-20T03:11:10;6.30;99.90
19435;DHT22;9853;50.848;4.108;2022-11-20T03:13:11;6.30;99.90
19435;DHT22;9853;50.848;4.108;2022-11-20T03:15:12;6.40;99.90
19435;DHT22;9853;50.848;4.108;2022-11-20T03:17:12;6.40;99.90
19435;DHT22;9853;50.848;4.108;2022-11-20T03:19:13;6.40;99.90
19435;DHT22;9853;50.848;4.108;2022-11-20T03:21:15;6.40;99.90
19435;DHT22;9853;50.848;4.108;2022-11-20T03:23:16;6.40;99.90
19435;DHT22;9853;50.848;4.108;2022-11-20T03:25:16;6.40;99.90
19435;DHT22;9853;50.848;4.108;2022-11-20T03:27:17;6.40;99.90
19435;DHT22;9853;50.848;4.108;2022-11-20T03:29:17;6.50;99.90
19435;DHT22;9853;50.848;4.108;2022-11-20T03:31:26;6.50;99.90
19435;DHT22;9853;50.848;4.108;2022-11-20T03:33:28;6.40;99.90
19435;DHT22;9853;50.848;4.108;2022-11-20T03:35:28;6.30;99.90
19435;DHT22;9853;50.848;4.108;2022-11-20T03:37:29;6.40;99.90
19435;DHT22;9853;50.848;4.108;2022-11-20T03:39:30;6.40;99.90
19435;DHT22;9853;50.848;4.108;2022-11-20T03:41:31;6.50;99.90
19435;DHT22;9853;50.848;4.108;2022-11-20T03:43:35;6.50;99.90
19435;DHT22;9853;50.848;4.108;2022-11-20T03:45:36;6.50;99.90
19435;DHT22;9853;50.848;4.108;2022-11-20T03:47:37;6.50;99.90
19435;DHT22;9853;50.848;4.108;2022-11-20T03:49:37;6.40;99.90
19435;DHT22;9853;50.848;4.108;2022-11-20T03:51:38;6.30;99.90
19435;DHT22;9853;50.848;4.108;2022-11-20T03:53:40;6.40;99.90
19435;DHT22;9853;50.848;4.108;2022-11-20T03:55:41;6.40;99.90
19435;DHT22;9853;50.848;4.108;2022-11-20T03:57:41;6.40;99.90
19435;DHT22;9853;50.848;4.108;2022-11-20T03:59:42;6.30;99.90
19435;DHT22;9853;50.848;4.108;2022-11-20T04:01:43;6.30;99.90
19435;DHT22;9853;50.848;4.108;2022-11-20T04:03:44;6.30;99.90
19435;DHT22;9853;50.848;4.108;2022-11-20T04:05:45;6.40;99.90
19435;DHT22;9853;50.848;4.108;2022-11-20T04:07:46;6.40;99.90
19435;DHT22;9853;50.848;4.108;2022-11-20T04:09:46;6.40;99.90
19435;DHT22;9853;50.848;4.108;2022-11-20T04:11:47;6.50;99.90
19435;DHT22;9853;50.848;4.108;2022-11-20T04:13:56;6.50;99.90
19435;DHT22;9853;50.848;4.108;2022-11-20T04:15:57;6.50;99.90
19435;DHT22;9853;50.848;4.108;2022-11-20T04:17:58;6.40;99.90
19435;DHT22;9853;50.848;4.108;2022-11-20T04:19:59;6.50;99.90
19435;DHT22;9853;50.848;4.108;2022-11-20T04:21:59;6.40;99.90
19435;DHT22;9853;50.848;4.108;2022-11-20T04:24:00;6.50;99.90
19435;DHT22;9853;50.848;4.108;2022-11-20T04:26:09;6.60;99.90
19435;DHT22;9853;50.848;4.108;2022-11-20T04:28:10;6.60;99.90
19435;DHT22;9853;50.848;4.108;2022-11-20T04:30:11;6.50;99.90
19435;DHT22;9853;50.848;4.108;2022-11-20T04:32:13;6.60;99.90
19435;DHT22;9853;50.848;4.108;2022-11-20T04:34:14;6.60;99.90
19435;DHT22;9853;50.848;4.108;2022-11-20T04:36:23;6.60;99.90
19435;DHT22;9853;50.848;4.108;2022-11-20T04:38:23;6.70;99.90
19435;DHT22;9853;50.848;4.108;2022-11-20T04:40:24;6.70;99.90
19435;DHT22;9853;50.848;4.108;2022-11-20T04:42:25;6.70;99.90
19435;DHT22;9853;50.848;4.108;2022-11-20T04:44:28;6.60;99.90
19435;DHT22;9853;50.848;4.108;2022-11-20T04:46:31;6.60;99.90
19435;DHT22;9853;50.848;4.108;2022-11-20T04:48:32;6.60;99.90
19435;DHT22;9853;50.848;4.108;2022-11-20T04:50:33;6.60;99.90
19435;DHT22;9853;50.848;4.108;2022-11-20T04:52:33;6.70;99.90
19435;DHT22;9853;50.848;4.108;2022-11-20T04:54:34;6.80;99.90
19435;DHT22;9853;50.848;4.108;2022-11-20T04:56:35;6.60;99.90
19435;DHT22;9853;50.848;4.108;2022-11-20T04:58:36;6.70;99.90
19435;DHT22;9853;50.848;4.108;2022-11-20T05:00:36;6.70;99.90
19435;DHT22;9853;50.848;4.108;2022-11-20T05:02:37;6.80;99.90
19435;DHT22;9853;50.848;4.108;2022-11-20T05:04:38;6.80;99.90
19435;DHT22;9853;50.848;4.108;2022-11-20T05:06:38;6.80;99.90
19435;DHT22;9853;50.848;4.108;2022-11-20T05:08:40;6.80;99.90
19435;DHT22;9853;50.848;4.108;2022-11-20T05:10:40;6.80;99.90
19435;DHT22;9853;50.848;4.108;2022-11-20T05:12:41;6.70;99.90
19435;DHT22;9853;50.848;4.108;2022-11-20T05:14:42;6.80;99.90
19435;DHT22;9853;50.848;4.108;2022-11-20T05:16:42;6.90;99.90
19435;DHT22;9853;50.848;4.108;2022-11-20T05:18:43;6.90;99.90
19435;DHT22;9853;50.848;4.108;2022-11-20T05:20:44;7.00;99.90
19435;DHT22;9853;50.848;4.108;2022-11-20T05:22:45;6.90;99.90
19435;DHT22;9853;50.848;4.108;2022-11-20T05:24:46;6.80;99.90
19435;DHT22;9853;50.848;4.108;2022-11-20T05:26:46;6.80;99.90
19435;DHT22;9853;50.848;4.108;2022-11-20T05:28:48;6.80;99.90
19435;DHT22;9853;50.848;4.108;2022-11-20T05:30:49;6.80;99.90
19435;DHT22;9853;50.848;4.108;2022-11-20T05:32:50;7.00;99.90
19435;DHT22;9853;50.848;4.108;2022-11-20T05:34:51;6.90;99.90
19435;DHT22;9853;50.848;4.108;2022-11-20T05:36:52;7.00;99.90
19435;DHT22;9853;50.848;4.108;2022-11-20T09:55:15;9.50;99.90
19435;DHT22;9853;50.848;4.108;2022-11-20T09:57:50;9.60;99.90
19435;DHT22;9853;50.848;4.108;2022-11-20T10:00:16;9.30;99.90
19435;DHT22;9853;50.848;4.108;2022-11-20T10:02:29;9.30;99.90
19435;DHT22;9853;50.848;4.108;2022-11-20T10:05:22;9.30;99.90
19435;DHT22;9853;50.848;4.108;2022-11-20T10:08:41;9.40;99.90
19435;DHT22;9853;50.848;4.108;2022-11-20T10:11:42;9.40;99.90
19435;DHT22;9853;50.848;4.108;2022-11-20T10:24:41;9.60;99.90
19435;DHT22;9853;50.848;4.108;2022-11-20T10:26:58;9.60;99.90
19435;DHT22;9853;50.848;4.108;2022-11-20T10:29:14;9.70;99.90
19435;DHT22;9853;50.848;4.108;2022-11-20T10:31:32;9.40;99.90
19435;DHT22;9853;50.848;4.108;2022-11-20T10:33:39;9.50;99.90
19435;DHT22;9853;50.848;4.108;2022-11-20T10:38:34;9.60;99.90
19435;DHT22;9853;50.848;4.108;2022-11-20T10:41:04;9.40;99.90
19435;DHT22;9853;50.848;4.108;2022-11-20T10:43:44;9.40;99.90
19435;DHT22;9853;50.848;4.108;2022-11-20T10:46:05;9.50;99.90
19435;DHT22;9853;50.848;4.108;2022-11-20T10:48:15;9.80;99.90
19435;DHT22;9853;50.848;4.108;2022-11-20T10:50:32;9.70;99.90
19435;DHT22;9853;50.848;4.108;2022-11-20T11:00:41;9.90;99.90
19435;DHT22;9853;50.848;4.108;2022-11-20T11:02:52;9.90;99.90
19435;DHT22;9853;50.848;4.108;2022-11-20T11:04:55;9.80;99.90
19435;DHT22;9853;50.848;4.108;2022-11-20T11:09:44;9.80;99.90
19435;DHT22;9853;50.848;4.108;2022-11-20T11:11:50;9.90;99.90
19435;DHT22;9853;50.848;4.108;2022-11-20T11:14:17;9.80;99.90
19435;DHT22;9853;50.848;4.108;2022-11-20T11:16:27;10.00;99.90
19435;DHT22;9853;50.848;4.108;2022-11-20T11:18:40;10.00;99.90
19435;DHT22;9853;50.848;4.108;2022-11-20T11:20:50;10.20;99.90
19435;DHT22;9853;50.848;4.108;2022-11-20T11:22:56;10.40;99.90
19435;DHT22;9853;50.848;4.108;2022-11-20T11:24:58;10.60;99.90
19435;DHT22;9853;50.848;4.108;2022-11-20T11:27:13;10.50;99.90
19435;DHT22;9853;50.848;4.108;2022-11-20T11:29:18;10.10;99.90
19435;DHT22;9853;50.848;4.108;2022-11-20T11:31:26;10.00;99.90
19435;DHT22;9853;50.848;4.108;2022-11-20T11:33:34;9.90;99.90
19435;DHT22;9853;50.848;4.108;2022-11-20T11:35:45;10.00;99.90
19435;DHT22;9853;50.848;4.108;2022-11-20T11:37:47;9.90;99.90
19435;DHT22;9853;50.848;4.108;2022-11-20T11:39:51;10.20;99.90
19435;DHT22;9853;50.848;4.108;2022-11-20T11:41:52;10.30;99.90
19435;DHT22;9853;50.848;4.108;2022-11-20T11:44:30;10.10;99.90
19435;DHT22;9853;50.848;4.108;2022-11-20T11:46:53;10.30;99.90
19435;DHT22;9853;50.848;4.108;2022-11-20T11:49:16;10.20;99.90
19435;DHT22;9853;50.848;4.108;2022-11-20T11:51:20;9.80;99.90
19435;DHT22;9853;50.848;4.108;2022-11-20T11:53:25;9.70;99.90
19435;DHT22;9853;50.848;4.108;2022-11-20T11:57:48;9.50;99.90
19435;DHT22;9853;50.848;4.108;2022-11-20T12:00:20;9.20;99.90
19435;DHT22;9853;50.848;4.108;2022-11-20T12:05:09;9.50;99.90
19435;DHT22;9853;50.848;4.108;2022-11-20T12:07:41;9.30;99.90
19435;DHT22;9853;50.848;4.108;2022-11-20T13:06:17;9.20;99.90
19435;DHT22;9853;50.848;4.108;2022-11-20T13:08:27;9.50;99.90
19435;DHT22;9853;50.848;4.108;2022-11-20T13:10:52;9.50;99.90
19435;DHT22;9853;50.848;4.108;2022-11-20T13:13:04;9.60;99.90
19435;DHT22;9853;50.848;4.108;2022-11-20T13:17:47;9.80;99.90
19435;DHT22;9853;50.848;4.108;2022-11-20T13:19:54;9.70;99.90
19435;DHT22;9853;50.848;4.108;2022-11-20T13:22:01;9.50;99.90
19435;DHT22;9853;50.848;4.108;2022-11-20T13:24:27;9.60;99.90
19435;DHT22;9853;50.848;4.108;2022-11-20T13:26:30;9.60;99.90
19435;DHT22;9853;50.848;4.108;2022-11-20T13:28:31;9.70;99.90
19435;DHT22;9853;50.848;4.108;2022-11-20T13:30:34;9.80;99.90
19435;DHT22;9853;50.848;4.108;2022-11-20T13:32:36;9.70;99.90
19435;DHT22;9853;50.848;4.108;2022-11-20T13:34:55;9.80;99.90
19435;DHT22;9853;50.848;4.108;2022-11-20T13:36:59;9.70;99.90
19435;DHT22;9853;50.848;4.108;2022-11-20T13:39:34;9.50;99.90
19435;DHT22;9853;50.848;4.108;2022-11-20T13:41:38;9.60;99.90
19435;DHT22;9853;50.848;4.108;2022-11-20T13:43:41;9.40;99.90
19435;DHT22;9853;50.848;4.108;2022-11-20T13:45:42;9.40;99.90
19435;DHT22;9853;50.848;4.108;2022-11-20T13:48:02;9.20;99.90
19435;DHT22;9853;50.848;4.108;2022-11-20T13:50:12;9.20;99.90
19435;DHT22;9853;50.848;4.108;2022-11-20T14:00:09;9.20;99.90
19435;DHT22;9853;50.848;4.108;2022-11-20T14:02:16;9.00;99.90
19435;DHT22;9853;50.848;4.108;2022-11-20T14:04:27;9.10;99.90
19435;DHT22;9853;50.848;4.108;2022-11-20T14:06:32;9.00;99.90
19435;DHT22;9853;50.848;4.108;2022-11-20T14:08:41;9.30;99.90
19435;DHT22;9853;50.848;4.108;2022-11-20T14:10:46;9.40;99.90
19435;DHT22;9853;50.848;4.108;2022-11-20T14:12:53;9.40;99.90
19435;DHT22;9853;50.848;4.108;2022-11-20T14:14:59;9.60;99.90
19435;DHT22;9853;50.848;4.108;2022-11-20T14:17:29;9.50;99.90
19435;DHT22;9853;50.848;4.108;2022-11-20T14:19:41;9.60;99.90
19435;DHT22;9853;50.848;4.108;2022-11-20T14:21:43;9.50;99.90
19435;DHT22;9853;50.848;4.108;2022-11-20T14:23:47;9.60;99.90
19435;DHT22;9853;50.848;4.108;2022-11-20T14:25:56;9.60;99.90
19435;DHT22;9853;50.848;4.108;2022-11-20T14:27:59;9.50;99.90
19435;DHT22;9853;50.848;4.108;2022-11-20T14:30:01;9.50;99.90
19435;DHT22;9853;50.848;4.108;2022-11-20T14:32:06;9.50;99.90
19435;DHT22;9853;50.848;4.108;2022-11-20T14:34:17;9.60;99.90
19435;DHT22;9853;50.848;4.108;2022-11-20T14:36:21;9.40;99.90
19435;DHT22;9853;50.848;4.108;2022-11-20T14:38:29;9.60;99.90
19435;DHT22;9853;50.848;4.108;2022-11-20T14:40:34;9.60;99.90
19435;DHT22;9853;50.848;4.108;2022-11-20T14:42:36;9.80;99.90
19435;DHT22;9853;50.848;4.108;2022-11-20T14:44:37;9.80;99.90
19435;DHT22;9853;50.848;4.108;2022-11-20T14:46:57;9.80;99.90
19435;DHT22;9853;50.848;4.108;2022-11-20T14:49:02;9.90;99.90
19435;DHT22;9853;50.848;4.108;2022-11-20T14:53:45;9.90;99.90
19435;DHT22;9853;50.848;4.108;2022-11-20T14:55:55;9.80;99.90
19435;DHT22;9853;50.848;4.108;2022-11-20T14:57:59;9.90;99.90
19435;DHT22;9853;50.848;4.108;2022-11-20T15:02:14;10.00;99.90
19435;DHT22;9853;50.848;4.108;2022-11-20T15:04:17;9.90;99.90
19435;DHT22;9853;50.848;4.108;2022-11-20T15:06:26;9.80;99.90
19435;DHT22;9853;50.848;4.108;2022-11-20T15:09:12;10.00;99.90
19435;DHT22;9853;50.848;4.108;2022-11-20T15:11:33;10.00;99.90
19435;DHT22;9853;50.848;4.108;2022-11-20T15:13:41;10.00;99.90
19435;DHT22;9853;50.848;4.108;2022-11-20T15:15:55;10.10;99.90
19435;DHT22;9853;50.848;4.108;2022-11-20T15:18:23;10.00;99.90
19435;DHT22;9853;50.848;4.108;2022-11-20T15:20:29;9.90;99.90
19435;DHT22;9853;50.848;4.108;2022-11-20T15:22:51;10.10;99.90
19435;DHT22;9853;50.848;4.108;2022-11-20T15:24:58;10.30;99.90
19435;DHT22;9853;50.848;4.108;2022-11-20T15:27:12;10.10;99.90
19435;DHT22;9853;50.848;4.108;2022-11-20T15:29:23;10.10;99.90
19435;DHT22;9853;50.848;4.108;2022-11-20T15:32:03;10.00;99.90
19435;DHT22;9853;50.848;4.108;2022-11-20T15:34:07;10.10;99.90
19435;DHT22;9853;50.848;4.108;2022-11-20T15:36:19;10.10;99.90
19435;DHT22;9853;50.848;4.108;2022-11-20T15:39:04;10.10;99.90
19435;DHT22;9853;50.848;4.108;2022-11-20T15:41:25;10.10;99.90
19435;DHT22;9853;50.848;4.108;2022-11-20T15:43:48;9.90;99.90
19435;DHT22;9853;50.848;4.108;2022-11-20T15:46:25;10.00;99.90
19435;DHT22;9853;50.848;4.108;2022-11-20T15:48:31;10.10;99.90
19435;DHT22;9853;50.848;4.108;2022-11-20T15:51:12;10.00;99.90
19435;DHT22;9853;50.848;4.108;2022-11-20T15:53:15;10.00;99.90
19435;DHT22;9853;50.848;4.108;2022-11-20T15:55:20;10.10;99.90
19435;DHT22;9853;50.848;4.108;2022-11-20T15:57:21;10.10;99.90
19435;DHT22;9853;50.848;4.108;2022-11-20T15:59:22;10.20;99.90
19435;DHT22;9853;50.848;4.108;2022-11-20T16:01:23;10.10;99.90
19435;DHT22;9853;50.848;4.108;2022-11-20T16:03:24;10.30;99.90
19435;DHT22;9853;50.848;4.108;2022-11-20T16:05:28;10.40;99.90
19435;DHT22;9853;50.848;4.108;2022-11-20T16:07:34;10.50;99.90
19435;DHT22;9853;50.848;4.108;2022-11-20T16:09:38;10.50;99.90
19435;DHT22;9853;50.848;4.108;2022-11-20T16:11:40;10.50;99.90
19435;DHT22;9853;50.848;4.108;2022-11-20T16:13:41;10.40;99.90
19435;DHT22;9853;50.848;4.108;2022-11-20T16:16:10;10.50;99.90
19435;DHT22;9853;50.848;4.108;2022-11-20T16:18:16;10.50;99.90
19435;DHT22;9853;50.848;4.108;2022-11-20T16:20:17;10.30;99.90
19435;DHT22;9853;50.848;4.108;2022-11-20T16:22:18;10.20;99.90
19435;DHT22;9853;50.848;4.108;2022-11-20T16:24:19;10.00;99.90
19435;DHT22;9853;50.848;4.108;2022-11-20T16:26:20;9.80;99.90
19435;DHT22;9853;50.848;4.108;2022-11-20T16:28:23;9.80;99.90
19435;DHT22;9853;50.848;4.108;2022-11-20T16:30:24;9.70;99.90
19435;DHT22;9853;50.848;4.108;2022-11-20T16:32:25;9.70;99.90
19435;DHT22;9853;50.848;4.108;2022-11-20T16:34:26;9.70;99.90
19435;DHT22;9853;50.848;4.108;2022-11-20T16:36:28;9.80;99.90
19435;DHT22;9853;50.848;4.108;2022-11-20T16:38:30;9.70;99.90
19435;DHT22;9853;50.848;4.108;2022-11-20T16:40:33;9.70;99.90
19435;DHT22;9853;50.848;4.108;2022-11-20T16:42:42;9.60;99.90
19435;DHT22;9853;50.848;4.108;2022-11-20T16:44:46;9.60;99.90
19435;DHT22;9853;50.848;4.108;2022-11-20T16:46:47;9.60;99.90
19435;DHT22;9853;50.848;4.108;2022-11-20T16:49:02;9.70;99.90
19435;DHT22;9853;50.848;4.108;2022-11-20T16:51:08;9.80;99.90
19435;DHT22;9853;50.848;4.108;2022-11-20T16:53:08;9.80;99.90
19435;DHT22;9853;50.848;4.108;2022-11-20T16:55:12;9.70;99.90
19435;DHT22;9853;50.848;4.108;2022-11-20T16:57:24;9.70;99.90
19435;DHT22;9853;50.848;4.108;2022-11-20T16:59:47;9.80;99.90
19435;DHT22;9853;50.848;4.108;2022-11-20T17:01:48;9.70;99.90
19435;DHT22;9853;50.848;4.108;2022-11-20T17:03:58;9.60;99.90
19435;DHT22;9853;50.848;4.108;2022-11-20T17:06:25;9.50;99.90
19435;DHT22;9853;50.848;4.108;2022-11-20T17:08:27;9.40;99.90
19435;DHT22;9853;50.848;4.108;2022-11-20T17:10:30;9.40;99.90
19435;DHT22;9853;50.848;4.108;2022-11-20T17:12:31;9.50;99.90
19435;DHT22;9853;50.848;4.108;2022-11-20T17:14:31;9.60;99.90
19435;DHT22;9853;50.848;4.108;2022-11-20T17:17:25;9.40;99.90
19435;DHT22;9853;50.848;4.108;2022-11-20T17:19:15;9.40;99.90
19435;DHT22;9853;50.848;4.108;2022-11-20T17:21:40;9.40;99.90
19435;DHT22;9853;50.848;4.108;2022-11-20T17:23:42;9.50;99.90
19435;DHT22;9853;50.848;4.108;2022-11-20T17:25:46;9.50;99.90
19435;DHT22;9853;50.848;4.108;2022-11-20T17:27:47;9.50;99.90
19435;DHT22;9853;50.848;4.108;2022-11-20T17:29:47;9.40;99.90
19435;DHT22;9853;50.848;4.108;2022-11-20T17:31:49;9.30;99.90
19435;DHT22;9853;50.848;4.108;2022-11-20T17:33:50;9.40;99.90
19435;DHT22;9853;50.848;4.108;2022-11-20T17:35:51;9.30;99.90
19435;DHT22;9853;50.848;4.108;2022-11-20T17:37:51;9.30;99.90
19435;DHT22;9853;50.848;4.108;2022-11-20T17:39:52;9.50;99.90
19435;DHT22;9853;50.848;4.108;2022-11-20T17:41:55;9.60;99.90
19435;DHT22;9853;50.848;4.108;2022-11-20T17:44:15;9.50;99.90
19435;DHT22;9853;50.848;4.108;2022-11-20T17:46:21;9.60;99.90
19435;DHT22;9853;50.848;4.108;2022-11-20T17:48:22;9.50;99.90
19435;DHT22;9853;50.848;4.108;2022-11-20T17:50:22;9.60;99.90
19435;DHT22;9853;50.848;4.108;2022-11-20T17:52:23;9.70;99.90
19435;DHT22;9853;50.848;4.108;2022-11-20T17:54:24;9.80;99.90
19435;DHT22;9853;50.848;4.108;2022-11-20T17:56:25;9.80;99.90
19435;DHT22;9853;50.848;4.108;2022-11-20T17:58:44;9.70;99.90
19435;DHT22;9853;50.848;4.108;2022-11-20T18:00:45;9.60;99.90
19435;DHT22;9853;50.848;4.108;2022-11-20T18:02:46;9.80;99.90
19435;DHT22;9853;50.848;4.108;2022-11-20T18:04:47;10.10;99.90
19435;DHT22;9853;50.848;4.108;2022-11-20T18:06:48;10.20;99.90
19435;DHT22;9853;50.848;4.108;2022-11-20T18:08:50;10.00;99.90
19435;DHT22;9853;50.848;4.108;2022-11-20T18:10:51;9.90;99.90
19435;DHT22;9853;50.848;4.108;2022-11-20T18:12:52;9.90;99.90
19435;DHT22;9853;50.848;4.108;2022-11-20T18:14:53;9.70;99.90
19435;DHT22;9853;50.848;4.108;2022-11-20T18:16:56;9.90;99.90
19435;DHT22;9853;50.848;4.108;2022-11-20T18:18:58;10.00;99.90
19435;DHT22;9853;50.848;4.108;2022-11-20T18:20:59;9.90;99.90
19435;DHT22;9853;50.848;4.108;2022-11-20T18:23:06;9.80;99.90
19435;DHT22;9853;50.848;4.108;2022-11-20T18:25:10;9.80;99.90
19435;DHT22;9853;50.848;4.108;2022-11-20T18:27:19;9.80;99.90
19435;DHT22;9853;50.848;4.108;2022-11-20T19:28:36;7.60;99.90
19435;DHT22;9853;50.848;4.108;2022-11-20T19:30:40;7.60;99.90
19435;DHT22;9853;50.848;4.108;2022-11-20T19:32:46;7.70;99.90
19435;DHT22;9853;50.848;4.108;2022-11-20T19:34:57;7.80;99.90
19435;DHT22;9853;50.848;4.108;2022-11-20T19:36:58;8.00;99.90
19435;DHT22;9853;50.848;4.108;2022-11-20T19:39:07;8.20;99.90
19435;DHT22;9853;50.848;4.108;2022-11-20T19:41:36;8.40;99.90
19435;DHT22;9853;50.848;4.108;2022-11-20T19:43:39;8.50;99.90
19435;DHT22;9853;50.848;4.108;2022-11-20T19:45:41;8.50;99.90
19435;DHT22;9853;50.848;4.108;2022-11-20T19:47:42;8.50;99.90
19435;DHT22;9853;50.848;4.108;2022-11-20T19:49:43;8.60;99.90
19435;DHT22;9853;50.848;4.108;2022-11-20T19:51:50;8.60;99.90
19435;DHT22;9853;50.848;4.108;2022-11-20T19:53:51;8.70;99.90
19435;DHT22;9853;50.848;4.108;2022-11-20T19:55:56;8.70;99.90
19435;DHT22;9853;50.848;4.108;2022-11-20T19:58:00;8.70;99.90
19435;DHT22;9853;50.848;4.108;2022-11-20T20:00:03;8.60;99.90
19435;DHT22;9853;50.848;4.108;2022-11-20T20:02:05;8.50;99.90
19435;DHT22;9853;50.848;4.108;2022-11-20T20:04:06;8.60;99.90
19435;DHT22;9853;50.848;4.108;2022-11-20T20:06:10;8.60;99.90
19435;DHT22;9853;50.848;4.108;2022-11-20T20:08:12;8.60;99.90
19435;DHT22;9853;50.848;4.108;2022-11-20T20:10:13;8.60;99.90
19435;DHT22;9853;50.848;4.108;2022-11-20T20:12:16;8.60;99.90
19435;DHT22;9853;50.848;4.108;2022-11-20T20:14:17;8.60;99.90
19435;DHT22;9853;50.848;4.108;2022-11-20T20:16:24;8.50;99.90
19435;DHT22;9853;50.848;4.108;2022-11-20T20:18:28;8.50;99.90
19435;DHT22;9853;50.848;4.108;2022-11-20T20:21:00;8.50;99.90
19435;DHT22;9853;50.848;4.108;2022-11-20T20:23:04;8.30;99.90
19435;DHT22;9853;50.848;4.108;2022-11-20T20:25:07;8.30;99.90
19435;DHT22;9853;50.848;4.108;2022-11-20T20:27:07;8.30;99.90
19435;DHT22;9853;50.848;4.108;2022-11-20T20:29:08;8.40;99.90
19435;DHT22;9853;50.848;4.108;2022-11-20T20:31:11;8.30;99.90
19435;DHT22;9853;50.848;4.108;2022-11-20T20:33:12;8.30;99.90
19435;DHT22;9853;50.848;4.108;2022-11-20T20:35:13;8.30;99.90
19435;DHT22;9853;50.848;4.108;2022-11-20T20:37:13;8.30;99.90
19435;DHT22;9853;50.848;4.108;2022-11-20T20:39:14;8.40;99.90
19435;DHT22;9853;50.848;4.108;2022-11-20T20:41:18;8.40;99.90